Terminal Aerodrome Forecast
Issued by NWS

Home | Current Version | Previous Version | Text Only | Print | Product List | Glossary On
Versions: 1 2 3 4 5 6 7 8 9 10 11 12 13 14
000
FTAK31 PAJN 032335
TAFAGY
TAF
PAGY 032335Z 0400/0424 21010KT P6SM SCT220
     FM040500 VRB03KT P6SM BKN200
     FM041000 VRB02KT P6SM OVC080
     FM041500 21010KT P6SM VCSH SCT050 OVC080
     FM042100 21013KT P6SM -RA SCT030 OVC060
      AMD LTD TO CLD VIS AND WIND=

USA.gov is the U.S. government's official web portal to all federal, state and local government web resources and services.